Time;durP1;ratioP1;P1;durP2;ratioP2;P2;SDS_P1;SDS_P2;PMS_P1;PMS_P2;Temp;Humidity;BMP_temperature;BMP_pressure;BME280_temperature;BME280_humidity;BME280_pressure;Samples;Min_cycle;Max_cycle;Signal;HPM_P1;HPM_P2
2023/03/15 00:00:48;;;;;;;5.55;1.58;;;3.30;99.90;;;;;;4968751;28;20451;-73
2023/03/15 00:03:14;;;;;;;2.88;1.58;;;3.40;99.90;;;;;;4974964;28;20031;-73
2023/03/15 00:05:44;;;;;;;5.03;1.45;;;3.40;99.90;;;;;;4971722;28;20038;-74
2023/03/15 00:08:11;;;;;;;2.20;1.20;;;3.50;99.90;;;;;;4968804;28;20062;-73
2023/03/15 00:10:44;;;;;;;8.63;1.90;;;3.50;99.90;;;;;;4973864;28;20372;-73
2023/03/15 00:13:10;;;;;;;2.67;1.25;;;3.60;99.90;;;;;;4968465;28;20035;-73
2023/03/15 00:15:43;;;;;;;3.08;1.20;;;3.70;99.90;;;;;;4969956;28;20033;-73
2023/03/15 00:18:08;;;;;;;3.50;1.55;;;3.70;99.90;;;;;;4968602;28;20428;-73
2023/03/15 00:20:36;;;;;;;2.72;1.60;;;3.70;99.90;;;;;;4971388;28;20030;-73
2023/03/15 00:23:02;;;;;;;4.65;1.80;;;3.70;99.90;;;;;;4971920;28;20026;-73
2023/03/15 00:25:28;;;;;;;2.85;1.27;;;3.70;99.90;;;;;;4968260;28;20073;-73
2023/03/15 00:27:54;;;;;;;4.65;1.88;;;3.60;99.90;;;;;;4974037;28;20077;-73
2023/03/15 00:30:20;;;;;;;3.83;1.88;;;3.70;99.90;;;;;;4972710;28;20030;-73
2023/03/15 00:32:45;;;;;;;3.92;1.48;;;3.70;99.90;;;;;;4972923;28;20086;-73
2023/03/15 00:35:17;;;;;;;8.82;1.73;;;3.70;99.90;;;;;;4974178;28;20019;-73
2023/03/15 00:37:43;;;;;;;3.17;1.30;;;3.70;99.90;;;;;;4971527;28;20387;-73
2023/03/15 00:40:09;;;;;;;3.42;1.70;;;3.70;99.90;;;;;;4969826;28;20034;-73
2023/03/15 00:42:34;;;;;;;3.13;1.58;;;3.70;99.90;;;;;;4977196;28;20045;-73
2023/03/15 00:45:00;;;;;;;7.35;1.83;;;3.60;99.90;;;;;;4969019;28;20404;-73
2023/03/15 00:47:26;;;;;;;6.40;2.53;;;3.60;99.90;;;;;;4961329;28;20423;-73
2023/03/15 00:49:52;;;;;;;6.57;2.60;;;3.50;99.90;;;;;;4963902;28;20035;-73
2023/03/15 00:52:17;;;;;;;3.78;2.03;;;3.50;99.90;;;;;;4968734;28;20026;-74
2023/03/15 00:54:43;;;;;;;6.30;2.10;;;3.50;99.90;;;;;;4969185;28;20054;-73
2023/03/15 00:57:09;;;;;;;5.22;1.90;;;3.50;99.90;;;;;;4965748;28;20027;-73
2023/03/15 00:59:35;;;;;;;5.25;2.03;;;3.50;99.90;;;;;;4967415;28;20022;-73
2023/03/15 01:02:02;;;;;;;8.55;1.90;;;3.40;99.90;;;;;;4969061;28;20035;-74
2023/03/15 01:04:27;;;;;;;4.80;1.90;;;3.40;99.90;;;;;;4967187;28;20038;-72
2023/03/15 01:06:53;;;;;;;4.38;1.67;;;3.30;99.90;;;;;;4965489;28;20027;-73
2023/03/15 01:09:19;;;;;;;6.40;2.20;;;3.30;99.90;;;;;;4967726;28;20038;-73
2023/03/15 01:11:44;;;;;;;5.45;1.85;;;3.30;99.90;;;;;;4964369;28;20027;-73
2023/03/15 01:14:10;;;;;;;4.18;1.75;;;3.40;99.90;;;;;;4968352;28;20031;-73
2023/03/15 01:16:36;;;;;;;5.35;2.33;;;3.40;99.90;;;;;;4971575;28;20031;-73
2023/03/15 01:19:02;;;;;;;5.55;1.70;;;3.40;99.90;;;;;;4985853;28;20319;-73
2023/03/15 01:21:28;;;;;;;8.75;2.22;;;3.50;99.90;;;;;;4970697;28;20038;-73
2023/03/15 01:23:53;;;;;;;7.00;2.40;;;3.60;99.90;;;;;;4965908;28;20070;-73
2023/03/15 01:26:19;;;;;;;5.55;1.90;;;3.60;99.90;;;;;;4966003;28;20280;-73
2023/03/15 01:28:45;;;;;;;4.43;1.75;;;3.70;99.90;;;;;;4965841;28;20065;-73
2023/03/15 01:31:20;;;;;;;6.47;2.10;;;3.70;99.90;;;;;;4970056;28;20497;-73
2023/03/15 01:33:46;;;;;;;6.68;1.80;;;3.80;99.90;;;;;;4967212;28;20019;-73
2023/03/15 01:36:12;;;;;;;4.10;1.67;;;3.70;99.90;;;;;;4968549;28;20045;-73
2023/03/15 01:38:38;;;;;;;8.95;2.38;;;3.80;99.90;;;;;;4966703;28;20031;-73
2023/03/15 01:41:04;;;;;;;6.18;2.05;;;3.80;99.90;;;;;;4969212;28;20053;-73
2023/03/15 01:43:31;;;;;;;5.45;2.15;;;3.90;99.90;;;;;;4964934;28;20087;-73
2023/03/15 01:46:05;;;;;;;7.65;1.77;;;3.90;99.90;;;;;;4966010;28;20029;-73
2023/03/15 01:48:33;;;;;;;6.80;1.80;;;3.90;99.90;;;;;;4967782;28;20037;-73
2023/03/15 01:51:04;;;;;;;5.13;2.15;;;3.90;99.90;;;;;;4966544;28;20035;-73
2023/03/15 01:53:32;;;;;;;5.82;1.42;;;3.90;99.90;;;;;;4965999;28;20046;-73
2023/03/15 01:55:59;;;;;;;5.82;1.50;;;3.90;99.90;;;;;;4965990;28;20039;-73
2023/03/15 01:58:26;;;;;;;5.28;1.55;;;3.90;99.90;;;;;;4969179;28;20110;-73
2023/03/15 02:00:52;;;;;;;4.90;1.60;;;3.90;99.90;;;;;;4964255;28;20516;-73
2023/03/15 02:03:24;;;;;;;7.47;1.92;;;3.90;99.90;;;;;;4966233;28;20089;-73
2023/03/15 02:05:57;;;;;;;6.18;1.67;;;3.90;99.90;;;;;;4967431;28;20030;-73
2023/03/15 02:08:27;;;;;;;2.97;1.20;;;3.90;99.90;;;;;;4972353;28;20411;-73
2023/03/15 02:10:57;;;;;;;7.63;1.25;;;3.90;99.90;;;;;;4966273;28;20238;-73
2023/03/15 02:13:24;;;;;;;4.57;1.25;;;3.80;99.90;;;;;;4971117;28;20098;-72
2023/03/15 02:15:54;;;;;;;8.82;1.88;;;3.80;99.90;;;;;;4969191;28;20045;-73
2023/03/15 02:18:20;;;;;;;10.45;1.63;;;3.70;99.90;;;;;;4968263;28;20031;-73
2023/03/15 02:21:02;;;;;;;6.38;1.90;;;3.70;99.90;;;;;;4971657;28;20045;-73
2023/03/15 02:23:28;;;;;;;6.78;1.60;;;3.70;99.90;;;;;;4971896;28;20041;-73
2023/03/15 02:26:15;;;;;;;3.88;1.42;;;3.70;99.90;;;;;;4970677;28;20039;-73
2023/03/15 02:28:42;;;;;;;3.67;1.67;;;3.60;99.90;;;;;;4966196;28;20091;-71
2023/03/15 02:31:09;;;;;;;3.95;1.05;;;3.60;99.90;;;;;;4971719;28;20019;-73
2023/03/15 02:34:06;;;;;;;6.68;1.40;;;3.60;99.90;;;;;;4967598;28;20039;-72
2023/03/15 02:36:33;;;;;;;5.85;1.52;;;3.50;99.90;;;;;;4969394;28;20407;-73
2023/03/15 02:38:59;;;;;;;6.40;1.45;;;3.50;99.90;;;;;;4972682;28;20086;-71
2023/03/15 02:41:36;;;;;;;4.18;1.15;;;3.40;99.90;;;;;;4974141;28;20031;-71
2023/03/15 02:44:31;;;;;;;3.30;1.00;;;3.40;99.90;;;;;;4968728;28;20041;-72
2023/03/15 02:47:06;;;;;;;5.25;1.50;;;3.30;99.90;;;;;;4965695;28;20050;-71
2023/03/15 02:49:36;;;;;;;3.03;1.52;;;3.30;99.90;;;;;;4968475;28;20136;-72
2023/03/15 02:52:02;;;;;;;3.08;1.27;;;3.20;99.90;;;;;;4972001;28;20322;-72
2023/03/15 02:54:27;;;;;;;6.97;1.50;;;3.20;99.90;;;;;;4972664;28;20039;-72
2023/03/15 02:56:53;;;;;;;6.45;1.63;;;3.20;99.90;;;;;;4970234;28;20030;-72
2023/03/15 02:59:18;;;;;;;5.90;1.48;;;3.10;99.90;;;;;;4970344;28;20049;-71
2023/03/15 03:01:44;;;;;;;6.03;1.15;;;3.10;99.90;;;;;;4969302;28;20112;-71
2023/03/15 03:04:10;;;;;;;6.65;1.35;;;3.00;99.90;;;;;;4970763;28;20333;-71
2023/03/15 03:06:36;;;;;;;4.05;1.13;;;3.00;99.90;;;;;;4967942;28;20030;-71
2023/03/15 03:09:02;;;;;;;7.60;1.40;;;3.00;99.90;;;;;;4972826;28;20723;-71
2023/03/15 03:11:28;;;;;;;4.75;1.52;;;3.00;99.90;;;;;;4972490;28;20624;-71
2023/03/15 03:13:54;;;;;;;6.13;1.27;;;3.00;99.90;;;;;;4969810;28;20023;-71
2023/03/15 03:16:21;;;;;;;8.05;1.95;;;2.90;99.90;;;;;;4971434;28;20062;-71
2023/03/15 03:18:47;;;;;;;6.53;1.40;;;2.90;99.90;;;;;;4969501;28;20424;-71
2023/03/15 03:21:13;;;;;;;5.55;1.40;;;2.90;99.90;;;;;;4968845;28;20061;-72
2023/03/15 03:23:39;;;;;;;9.13;1.60;;;2.80;99.90;;;;;;4969668;28;20058;-72
2023/03/15 03:26:15;;;;;;;6.97;1.38;;;2.80;99.90;;;;;;4977638;23;20077;-75
2023/03/15 03:28:44;;;;;;;4.25;1.38;;;2.70;99.90;;;;;;4972282;28;20131;-76
2023/03/15 03:31:22;;;;;;;4.47;1.30;;;2.70;99.90;;;;;;4971792;28;20527;-76
2023/03/15 03:33:48;;;;;;;5.07;1.55;;;2.70;99.90;;;;;;4970073;28;20034;-75
2023/03/15 03:36:15;;;;;;;6.07;1.73;;;2.70;99.90;;;;;;4969532;28;20479;-75
2023/03/15 03:38:41;;;;;;;7.53;1.20;;;2.70;99.90;;;;;;4966842;28;20053;-76
2023/03/15 03:41:08;;;;;;;5.88;1.38;;;2.70;99.90;;;;;;4971492;28;21225;-76
2023/03/15 03:43:34;;;;;;;5.35;1.33;;;2.60;99.90;;;;;;4972699;28;20090;-78
2023/03/15 03:45:59;;;;;;;6.75;1.40;;;2.70;99.90;;;;;;4969925;28;20030;-78
2023/03/15 03:48:25;;;;;;;3.50;1.10;;;2.60;99.90;;;;;;4966949;28;20133;-76
2023/03/15 03:50:51;;;;;;;5.30;1.20;;;2.60;99.90;;;;;;4965423;28;20030;-76
2023/03/15 03:53:16;;;;;;;4.85;1.10;;;2.60;99.90;;;;;;4967526;28;20023;-76
2023/03/15 03:55:42;;;;;;;3.85;1.30;;;2.60;99.90;;;;;;4969519;28;20030;-76
2023/03/15 03:58:08;;;;;;;6.57;1.33;;;2.60;99.90;;;;;;4968982;28;20395;-76
2023/03/15 04:00:34;;;;;;;7.53;1.20;;;2.50;99.90;;;;;;4969218;28;20105;-77
2023/03/15 04:03:00;;;;;;;7.10;1.23;;;2.50;99.90;;;;;;4969609;28;20130;-76
2023/03/15 04:05:27;;;;;;;5.30;1.40;;;2.50;99.90;;;;;;4969793;28;20035;-77
2023/03/15 04:07:53;;;;;;;5.82;1.30;;;2.40;99.90;;;;;;4968704;28;20027;-76
2023/03/15 04:10:25;;;;;;;6.22;1.25;;;2.50;99.90;;;;;;4969496;28;20570;-77
2023/03/15 04:12:53;;;;;;;6.68;1.20;;;2.40;99.90;;;;;;4970774;28;20126;-77
2023/03/15 04:15:21;;;;;;;3.80;1.10;;;2.40;99.90;;;;;;4969851;28;20110;-77
2023/03/15 04:17:47;;;;;;;4.45;1.50;;;2.30;99.90;;;;;;4968803;28;20360;-77
2023/03/15 04:20:14;;;;;;;5.72;1.50;;;2.30;99.90;;;;;;4968554;28;20023;-77
2023/03/15 04:22:40;;;;;;;4.93;1.70;;;2.30;99.90;;;;;;4971143;28;20193;-76
2023/03/15 04:25:06;;;;;;;2.40;1.27;;;2.30;99.90;;;;;;4970202;28;20121;-77
2023/03/15 04:27:32;;;;;;;7.40;1.27;;;2.20;99.90;;;;;;4968375;28;20034;-77
2023/03/15 04:29:57;;;;;;;5.30;1.27;;;2.30;99.90;;;;;;4966230;28;20543;-77
2023/03/15 04:32:23;;;;;;;6.63;1.50;;;2.30;99.90;;;;;;4966150;28;20169;-76
2023/03/15 04:34:54;;;;;;;4.80;1.27;;;2.20;99.90;;;;;;4969920;28;20037;-77
2023/03/15 04:37:20;;;;;;;4.10;1.70;;;2.20;99.90;;;;;;4967062;28;20047;-77
2023/03/15 04:39:45;;;;;;;7.90;1.70;;;2.20;99.90;;;;;;4970173;28;20037;-77
2023/03/15 04:42:11;;;;;;;8.98;1.40;;;2.20;99.90;;;;;;4971156;28;20378;-77
2023/03/15 04:44:37;;;;;;;5.55;1.50;;;2.10;99.90;;;;;;4970636;28;20034;-77
2023/03/15 04:47:02;;;;;;;9.68;1.50;;;2.10;99.90;;;;;;4970827;28;20498;-77
2023/03/15 04:49:28;;;;;;;10.48;1.98;;;2.00;99.90;;;;;;4968601;28;20570;-77
2023/03/15 04:51:54;;;;;;;6.13;2.95;;;2.00;99.90;;;;;;4969841;28;20027;-77
2023/03/15 04:54:19;;;;;;;9.57;2.70;;;2.00;99.90;;;;;;4969036;28;20039;-77
2023/03/15 04:56:45;;;;;;;7.68;2.30;;;2.00;99.90;;;;;;4979164;28;20514;-78
2023/03/15 04:59:10;;;;;;;5.28;2.35;;;2.00;99.90;;;;;;4972526;28;20051;-79
2023/03/15 05:01:36;;;;;;;8.65;2.35;;;2.00;99.90;;;;;;4969049;28;20473;-78
2023/03/15 05:04:02;;;;;;;2.15;1.42;;;2.00;99.90;;;;;;4967763;28;20501;-78
2023/03/15 05:06:28;;;;;;;5.80;1.80;;;2.00;99.90;;;;;;4970797;28;20119;-77
2023/03/15 05:08:54;;;;;;;4.85;2.17;;;2.00;99.90;;;;;;4969149;28;20030;-77
2023/03/15 05:11:20;;;;;;;6.47;1.50;;;2.00;99.90;;;;;;4972013;28;20089;-77
2023/03/15 05:13:45;;;;;;;5.50;1.70;;;1.90;99.90;;;;;;4967058;28;20755;-76
2023/03/15 05:16:11;;;;;;;4.13;1.73;;;1.90;99.90;;;;;;4963045;28;20124;-76
2023/03/15 05:18:37;;;;;;;4.57;1.67;;;1.90;99.90;;;;;;4965907;28;20491;-76
2023/03/15 05:21:04;;;;;;;4.18;1.40;;;1.80;99.90;;;;;;4968924;28;20483;-76
2023/03/15 05:23:32;;;;;;;11.23;2.63;;;1.80;99.90;;;;;;4969797;28;20030;-76
2023/03/15 05:25:59;;;;;;;9.15;2.10;;;1.80;99.90;;;;;;4968542;28;20142;-77
2023/03/15 05:28:25;;;;;;;8.70;1.80;;;1.70;99.90;;;;;;4969598;28;20042;-76
2023/03/15 05:30:51;;;;;;;6.18;1.85;;;1.70;99.90;;;;;;4969663;28;20038;-76
2023/03/15 05:33:18;;;;;;;5.47;2.00;;;1.70;99.90;;;;;;4970795;28;20561;-76
2023/03/15 05:35:44;;;;;;;7.68;2.85;;;1.60;99.90;;;;;;4969532;28;20026;-76
2023/03/15 05:38:13;;;;;;;8.63;2.65;;;1.60;99.90;;;;;;4968876;28;20027;-75
2023/03/15 05:40:45;;;;;;;5.65;2.42;;;1.60;99.90;;;;;;4968065;28;20031;-75
2023/03/15 05:43:11;;;;;;;7.70;1.90;;;1.60;99.90;;;;;;4985676;28;20023;-74
2023/03/15 05:45:37;;;;;;;7.15;3.15;;;1.60;99.90;;;;;;4970087;28;20031;-76
2023/03/15 05:48:04;;;;;;;9.60;2.60;;;1.50;99.90;;;;;;4968334;28;20054;-75
2023/03/15 05:50:30;;;;;;;4.80;2.00;;;1.50;99.90;;;;;;4971607;28;20105;-75
2023/03/15 05:52:56;;;;;;;6.50;2.10;;;1.50;99.90;;;;;;4972684;28;20036;-74
2023/03/15 05:55:22;;;;;;;4.78;2.13;;;1.40;99.90;;;;;;4973157;28;20029;-74
2023/03/15 05:57:47;;;;;;;10.82;2.75;;;1.40;99.90;;;;;;4987360;28;20130;-76
2023/03/15 06:00:15;;;;;;;6.97;1.98;;;1.40;99.90;;;;;;4968288;28;20027;-75
2023/03/15 06:02:41;;;;;;;6.55;1.85;;;1.40;99.90;;;;;;4975855;28;20053;-75
2023/03/15 06:05:07;;;;;;;7.95;3.33;;;1.40;99.90;;;;;;4973947;28;20026;-75
2023/03/15 06:07:33;;;;;;;5.03;2.42;;;1.40;99.90;;;;;;4976743;28;20031;-76
2023/03/15 06:09:58;;;;;;;6.20;2.33;;;1.40;99.90;;;;;;4973128;28;20035;-75
2023/03/15 06:12:24;;;;;;;10.00;2.90;;;1.40;99.90;;;;;;4975599;28;20076;-74
2023/03/15 06:14:50;;;;;;;7.63;2.70;;;1.40;99.90;;;;;;4973979;28;20133;-75
2023/03/15 06:17:16;;;;;;;7.55;2.47;;;1.50;99.90;;;;;;4982834;28;20072;-77
2023/03/15 06:19:41;;;;;;;5.80;2.42;;;1.50;99.90;;;;;;4995281;28;20501;-76
2023/03/15 06:22:07;;;;;;;8.02;3.13;;;1.50;99.90;;;;;;4983539;28;20031;-75
2023/03/15 06:24:33;;;;;;;10.63;3.58;;;1.50;99.90;;;;;;4976788;28;20027;-76
2023/03/15 06:26:59;;;;;;;6.72;2.80;;;1.60;99.90;;;;;;4978276;28;20121;-76
2023/03/15 06:29:24;;;;;;;10.15;3.88;;;1.70;99.90;;;;;;4977759;28;20116;-77
2023/03/15 06:31:51;;;;;;;7.95;3.35;;;1.70;99.90;;;;;;4973075;28;20014;-76
2023/03/15 06:34:18;;;;;;;13.43;3.70;;;1.80;99.90;;;;;;4978914;28;20018;-76
2023/03/15 06:36:44;;;;;;;11.15;3.10;;;1.90;99.90;;;;;;4978821;28;20050;-77
2023/03/15 06:39:11;;;;;;;14.52;3.72;;;1.90;99.90;;;;;;4978579;28;20058;-77
2023/03/15 06:41:38;;;;;;;11.20;3.00;;;2.00;99.90;;;;;;4984501;28;20038;-79
2023/03/15 06:44:04;;;;;;;10.95;3.60;;;2.10;99.90;;;;;;4977140;28;20030;-76
2023/03/15 06:46:30;;;;;;;7.70;2.33;;;2.10;99.90;;;;;;4974322;28;20495;-77
2023/03/15 06:48:56;;;;;;;8.30;2.95;;;2.20;99.90;;;;;;4971160;28;20119;-77
2023/03/15 06:51:22;;;;;;;8.77;3.50;;;2.20;99.90;;;;;;4973088;28;20617;-78
2023/03/15 06:53:48;;;;;;;8.45;2.75;;;2.30;99.90;;;;;;4973450;28;20038;-78
2023/03/15 06:56:13;;;;;;;6.22;2.70;;;2.40;99.90;;;;;;4974345;28;20423;-78
2023/03/15 06:58:39;;;;;;;5.28;2.60;;;2.50;99.90;;;;;;4976764;28;20096;-78
2023/03/15 07:01:05;;;;;;;4.80;2.15;;;2.50;99.90;;;;;;4988690;28;20023;-77
2023/03/15 07:03:30;;;;;;;9.13;2.30;;;2.60;99.90;;;;;;4975534;28;20027;-78
2023/03/15 07:05:56;;;;;;;8.88;3.03;;;2.70;99.90;;;;;;4978739;28;20129;-78
2023/03/15 07:08:24;;;;;;;8.50;2.58;;;2.70;99.90;;;;;;4975758;28;20027;-78
2023/03/15 07:10:50;;;;;;;3.95;1.73;;;2.80;99.90;;;;;;4972697;28;20039;-78
2023/03/15 07:13:17;;;;;;;13.00;1.58;;;2.80;99.90;;;;;;4976419;28;20356;-79
2023/03/15 07:15:43;;;;;;;4.90;2.40;;;2.90;99.90;;;;;;4975974;28;20182;-77
2023/03/15 07:18:08;;;;;;;8.07;1.95;;;3.00;99.90;;;;;;4976536;28;20030;-77
2023/03/15 07:20:34;;;;;;;8.27;1.90;;;3.10;99.90;;;;;;4982053;28;20034;-78
2023/03/15 07:23:00;;;;;;;8.00;2.72;;;3.20;99.90;;;;;;4980781;28;20079;-77
2023/03/15 07:25:25;;;;;;;6.82;2.03;;;3.20;99.90;;;;;;4972761;28;20369;-77
2023/03/15 07:27:52;;;;;;;10.02;1.85;;;3.30;99.90;;;;;;4977317;28;20502;-76
2023/03/15 07:30:19;;;;;;;7.80;2.30;;;3.30;99.90;;;;;;4972622;28;20062;-79
2023/03/15 07:32:44;;;;;;;4.80;1.67;;;3.40;99.90;;;;;;4977385;28;20027;-78
2023/03/15 07:35:10;;;;;;;12.07;2.60;;;3.40;99.90;;;;;;4970797;28;20023;-77
2023/03/15 07:37:36;;;;;;;5.97;1.42;;;3.50;99.90;;;;;;4972108;28;20035;-77
2023/03/15 07:40:03;;;;;;;5.80;1.33;;;3.60;99.90;;;;;;4972544;28;20042;-78
2023/03/15 07:42:28;;;;;;;7.95;1.65;;;3.60;99.90;;;;;;4973519;28;20505;-78
2023/03/15 07:44:54;;;;;;;10.95;1.60;;;3.70;99.90;;;;;;4968511;28;20109;-76
2023/03/15 07:47:20;;;;;;;6.15;2.17;;;3.70;99.90;;;;;;4971412;28;20130;-76
2023/03/15 07:49:45;;;;;;;12.65;2.28;;;3.70;99.90;;;;;;4967213;28;20030;-78
2023/03/15 07:52:11;;;;;;;7.10;1.40;;;3.80;99.90;;;;;;4974556;28;20037;-77
2023/03/15 07:54:37;;;;;;;7.07;1.65;;;3.90;99.90;;;;;;4976064;28;20023;-79
2023/03/15 07:57:03;;;;;;;8.10;1.45;;;4.00;99.90;;;;;;4975397;28;20490;-78
2023/03/15 07:59:28;;;;;;;9.07;1.88;;;3.90;99.90;;;;;;4970811;28;20023;-77
2023/03/15 08:01:54;;;;;;;7.20;1.70;;;4.00;99.90;;;;;;4967390;28;20027;-77
2023/03/15 08:04:20;;;;;;;7.22;1.98;;;4.10;99.90;;;;;;4962634;28;20095;-77
2023/03/15 08:06:45;;;;;;;8.90;2.42;;;4.10;99.90;;;;;;4973540;28;20411;-77
2023/03/15 08:09:11;;;;;;;7.68;2.05;;;4.20;99.90;;;;;;4972666;28;20034;-80
2023/03/15 08:11:37;;;;;;;5.05;1.63;;;4.20;99.90;;;;;;4979085;28;20042;-78
2023/03/15 08:14:02;;;;;;;5.85;1.35;;;4.30;99.90;;;;;;4975002;28;20443;-79
2023/03/15 08:16:28;;;;;;;6.95;2.15;;;4.40;99.90;;;;;;4967790;28;20064;-79
2023/03/15 08:18:53;;;;;;;6.97;1.60;;;4.40;99.90;;;;;;4974752;28;20029;-79
2023/03/15 08:21:20;;;;;;;5.88;1.23;;;4.50;99.90;;;;;;4974498;28;20030;-79
2023/03/15 08:23:45;;;;;;;6.90;0.80;;;4.50;99.90;;;;;;4972254;28;20422;-78
2023/03/15 08:26:11;;;;;;;3.80;1.15;;;4.60;99.90;;;;;;4973064;28;20137;-80
2023/03/15 08:28:37;;;;;;;6.57;1.10;;;4.60;99.90;;;;;;4973029;28;20030;-81
2023/03/15 08:31:12;;;;;;;1.88;0.70;;;4.70;99.90;;;;;;4973425;28;20026;-80
2023/03/15 08:33:38;;;;;;;5.45;0.77;;;4.80;99.90;;;;;;4986568;28;20054;-80
2023/03/15 08:36:04;;;;;;;8.57;1.10;;;4.80;99.90;;;;;;4972683;28;21528;-78
2023/03/15 08:38:30;;;;;;;1.65;0.60;;;4.90;99.90;;;;;;4967720;28;20118;-80
2023/03/15 08:40:57;;;;;;;7.25;1.00;;;5.00;99.90;;;;;;4979491;28;20022;-79
2023/03/15 08:43:22;;;;;;;2.85;1.02;;;5.00;99.90;;;;;;4988635;28;20137;-79
2023/03/15 08:45:49;;;;;;;4.40;0.77;;;5.10;99.90;;;;;;4975572;28;20041;-77
2023/03/15 08:48:15;;;;;;;5.05;0.70;;;5.10;99.90;;;;;;4972104;28;20388;-82
2023/03/15 08:50:40;;;;;;;2.83;0.70;;;5.20;99.90;;;;;;4975191;28;20031;-80
2023/03/15 08:53:07;;;;;;;2.85;0.70;;;5.20;99.90;;;;;;4971842;28;20026;-80
2023/03/15 08:55:32;;;;;;;3.22;1.05;;;5.20;99.90;;;;;;4974085;28;20097;-78
2023/03/15 08:58:00;;;;;;;4.80;1.02;;;5.20;99.90;;;;;;4977242;28;20027;-80
2023/03/15 09:00:26;;;;;;;4.30;1.00;;;5.30;99.90;;;;;;4974536;28;20034;-80
2023/03/15 09:02:53;;;;;;;2.95;0.90;;;5.40;99.90;;;;;;4974789;28;20031;-81
2023/03/15 09:05:19;;;;;;;4.70;0.93;;;5.50;99.90;;;;;;4973315;28;20464;-80
2023/03/15 09:07:46;;;;;;;4.47;0.85;;;5.60;99.90;;;;;;4973527;28;20027;-80
2023/03/15 09:10:14;;;;;;;3.35;0.70;;;5.70;99.90;;;;;;4974771;28;20038;-81
2023/03/15 09:12:45;;;;;;;2.38;0.77;;;5.70;99.90;;;;;;4977192;28;20061;-78
2023/03/15 09:15:11;;;;;;;1.52;0.47;;;5.80;99.90;;;;;;4969818;28;20038;-79
2023/03/15 09:17:38;;;;;;;2.15;0.68;;;5.90;99.90;;;;;;4975374;28;20027;-78
2023/03/15 09:20:10;;;;;;;2.17;0.60;;;5.90;99.90;;;;;;4981023;28;21361;-79
2023/03/15 09:22:36;;;;;;;5.80;1.10;;;6.00;99.90;;;;;;4979549;28;20117;-81
2023/03/15 09:25:03;;;;;;;5.85;0.73;;;6.10;99.90;;;;;;4977784;28;20038;-80
2023/03/15 09:27:30;;;;;;;3.97;0.85;;;6.20;99.90;;;;;;4977912;28;20027;-78
2023/03/15 09:29:56;;;;;;;2.42;0.70;;;6.30;99.90;;;;;;4976308;28;20038;-78
2023/03/15 09:32:22;;;;;;;3.97;0.80;;;6.40;99.90;;;;;;4984962;28;20124;-78
2023/03/15 09:34:48;;;;;;;3.15;0.57;;;6.50;99.90;;;;;;4977487;28;20026;-77
2023/03/15 09:37:14;;;;;;;5.13;0.80;;;6.50;99.50;;;;;;4984502;28;20149;-79
2023/03/15 09:39:40;;;;;;;3.58;0.60;;;6.70;99.90;;;;;;4995866;28;20112;-78
2023/03/15 09:42:21;;;;;;;2.33;0.70;;;6.70;99.30;;;;;;4977869;28;20022;-78
2023/03/15 09:44:51;;;;;;;5.07;0.80;;;6.90;98.80;;;;;;4976328;28;20053;-78
2023/03/15 09:47:30;;;;;;;2.15;0.60;;;7.00;98.30;;;;;;4978750;28;20066;-79
2023/03/15 09:50:20;;;;;;;11.80;0.90;;;7.00;97.60;;;;;;4978073;28;20031;-79
2023/03/15 09:53:03;;;;;;;2.65;0.77;;;7.00;96.60;;;;;;4994266;28;20456;-81
2023/03/15 09:55:29;;;;;;;1.95;0.60;;;7.00;97.60;;;;;;4977622;28;20065;-78
2023/03/15 09:58:03;;;;;;;2.55;0.75;;;7.00;96.30;;;;;;4993581;28;20026;-79
2023/03/15 10:00:49;;;;;;;4.90;1.05;;;7.00;96.30;;;;;;4974158;28;20030;-80
2023/03/15 10:03:30;;;;;;;1.50;0.65;;;7.00;95.80;;;;;;4980754;28;20496;-79
2023/03/15 10:06:01;;;;;;;2.35;0.50;;;7.00;95.50;;;;;;4979367;28;20052;-79
2023/03/15 10:08:27;;;;;;;3.95;0.70;;;6.90;94.60;;;;;;4974408;28;20502;-77
2023/03/15 10:11:03;;;;;;;4.60;0.73;;;7.00;94.70;;;;;;4977225;28;20030;-79
2023/03/15 10:13:41;;;;;;;3.13;0.63;;;6.90;94.70;;;;;;4978078;28;20039;-78
2023/03/15 10:16:22;;;;;;;3.67;0.80;;;6.90;95.30;;;;;;4975848;28;20023;-80
2023/03/15 10:18:56;;;;;;;2.50;0.95;;;7.00;95.10;;;;;;4976513;28;20027;-80
2023/03/15 10:21:27;;;;;;;;;;;7.00;95.60;;;;;;4977327;28;20031;-79
2023/03/15 10:23:53;;;;;;;6.07;0.90;;;7.00;95.20;;;;;;4974552;28;20359;-79
2023/03/15 10:26:26;;;;;;;2.00;0.88;;;7.00;95.70;;;;;;4972671;28;20086;-79
2023/03/15 10:28:52;;;;;;;2.58;0.80;;;7.00;95.70;;;;;;4972040;28;20051;-80
2023/03/15 10:31:24;;;;;;;5.72;1.40;;;7.00;95.60;;;;;;4976970;28;20026;-78
2023/03/15 10:33:50;;;;;;;5.03;1.30;;;7.00;95.20;;;;;;4974072;28;20022;-79
2023/03/15 10:36:19;;;;;;;4.15;1.02;;;7.00;95.80;;;;;;4972666;28;20027;-77
2023/03/15 10:38:45;;;;;;;2.80;0.88;;;7.00;95.40;;;;;;4968705;28;20037;-77
2023/03/15 10:41:13;;;;;;;4.85;1.05;;;7.00;96.00;;;;;;4981153;28;20041;-78
2023/03/15 10:43:40;;;;;;;3.63;0.80;;;7.00;95.90;;;;;;4979278;28;20038;-79
2023/03/15 10:46:12;;;;;;;3.97;0.85;;;7.00;95.80;;;;;;4982317;28;20033;-79
2023/03/15 10:49:00;;;;;;;5.40;1.30;;;7.10;95.80;;;;;;4977605;28;20039;-79
2023/03/15 10:51:30;;;;;;;3.90;0.90;;;7.20;95.70;;;;;;4976254;28;20114;-80
2023/03/15 10:53:58;;;;;;;3.55;1.00;;;7.20;95.70;;;;;;4974296;28;20387;-79
2023/03/15 10:56:27;;;;;;;3.13;0.80;;;7.20;94.70;;;;;;4973621;28;20031;-77
2023/03/15 10:58:55;;;;;;;4.05;1.05;;;7.20;93.80;;;;;;4972809;28;20027;-79
2023/03/15 11:01:27;;;;;;;2.72;1.10;;;7.20;94.20;;;;;;4978599;28;20033;-79
2023/03/15 11:04:14;;;;;;;5.60;1.10;;;7.10;92.70;;;;;;4973781;28;20027;-81
2023/03/15 11:07:02;;;;;;;4.07;1.10;;;7.10;93.00;;;;;;4972477;28;20062;-79
2023/03/15 11:09:38;;;;;;;3.50;0.70;;;7.30;93.20;;;;;;4976114;28;20031;-78
2023/03/15 11:12:06;;;;;;;4.88;0.73;;;7.40;92.50;;;;;;4979380;28;20114;-79
2023/03/15 11:14:38;;;;;;;2.58;0.75;;;7.40;92.40;;;;;;4978755;28;20077;-80
2023/03/15 11:17:06;;;;;;;2.00;0.63;;;7.50;92.30;;;;;;4975377;28;20110;-80
2023/03/15 11:19:37;;;;;;;3.08;1.30;;;7.60;93.00;;;;;;4975595;28;20023;-79
2023/03/15 11:22:03;;;;;;;1.55;0.75;;;7.60;92.50;;;;;;4973772;28;20035;-79
2023/03/15 11:24:31;;;;;;;3.35;0.98;;;7.70;92.50;;;;;;4975253;28;20117;-81
2023/03/15 11:27:08;;;;;;;5.97;0.90;;;7.90;92.70;;;;;;4970527;28;20035;-81
2023/03/15 11:29:35;;;;;;;3.40;0.80;;;8.00;91.90;;;;;;4975308;28;20035;-81
2023/03/15 11:32:12;;;;;;;6.03;1.20;;;8.10;91.40;;;;;;4978059;28;20035;-79
2023/03/15 11:34:44;;;;;;;4.47;1.05;;;8.20;91.30;;;;;;4976253;28;20061;-78
2023/03/15 11:37:23;;;;;;;5.15;0.98;;;8.30;91.00;;;;;;4976478;28;20054;-79
2023/03/15 11:40:20;;;;;;;4.07;0.70;;;8.40;90.90;;;;;;4991559;28;20030;-78
2023/03/15 11:43:12;;;;;;;1.70;0.75;;;8.40;87.10;;;;;;4982892;28;20031;-78
2023/03/15 11:45:40;;;;;;;4.25;1.30;;;8.20;86.60;;;;;;4977468;28;20360;-78
2023/03/15 11:48:39;;;;;;;3.15;0.88;;;8.30;86.90;;;;;;4974048;28;20054;-78
2023/03/15 11:51:06;;;;;;;2.85;0.70;;;8.50;87.10;;;;;;4970972;28;20038;-80
2023/03/15 11:53:37;;;;;;;1.17;0.50;;;8.50;87.40;;;;;;4974599;28;20089;-77
2023/03/15 11:56:39;;;;;;;1.40;0.65;;;8.60;84.80;;;;;;4970595;28;20027;-79
2023/03/15 11:59:11;;;;;;;6.05;0.95;;;8.60;85.10;;;;;;4972854;28;20021;-79
2023/03/15 12:01:45;;;;;;;3.75;0.93;;;8.70;84.70;;;;;;4984879;28;20011;-78
2023/03/15 12:04:23;;;;;;;2.47;1.00;;;8.70;83.90;;;;;;4972899;28;20022;-79
2023/03/15 12:06:52;;;;;;;6.35;1.23;;;8.70;84.00;;;;;;4975931;28;20155;-78
2023/03/15 12:09:30;;;;;;;2.67;0.60;;;8.70;86.30;;;;;;4975158;28;20122;-78
2023/03/15 12:12:04;;;;;;;3.35;0.77;;;8.90;86.00;;;;;;4974827;28;20106;-79
2023/03/15 12:14:33;;;;;;;3.38;0.60;;;8.90;83.60;;;;;;4975235;28;20026;-78
2023/03/15 12:17:27;;;;;;;3.15;0.80;;;8.90;83.60;;;;;;4973211;28;20031;-78
2023/03/15 12:20:10;;;;;;;3.53;0.60;;;8.90;85.20;;;;;;4970990;28;20034;-78
2023/03/15 12:22:46;;;;;;;2.95;0.60;;;9.00;82.50;;;;;;4988835;28;20035;-79
2023/03/15 12:25:18;;;;;;;2.05;0.75;;;9.10;83.70;;;;;;4985246;28;20039;-78
2023/03/15 12:27:50;;;;;;;1.15;0.57;;;9.10;81.80;;;;;;4972180;28;20035;-78
2023/03/15 12:30:23;;;;;;;2.72;0.70;;;9.10;81.80;;;;;;4971877;28;20027;-78
2023/03/15 12:32:53;;;;;;;3.47;0.70;;;9.20;81.90;;;;;;4969705;28;20550;-78
2023/03/15 12:35:21;;;;;;;3.03;0.68;;;9.20;82.50;;;;;;4971212;28;20673;-77
2023/03/15 12:37:52;;;;;;;1.75;0.50;;;9.20;82.60;;;;;;4974411;28;20027;-78
2023/03/15 12:40:19;;;;;;;1.73;0.73;;;9.10;82.90;;;;;;4973500;28;20023;-79
2023/03/15 12:42:47;;;;;;;1.25;0.60;;;9.10;83.30;;;;;;4974254;28;20023;-78
2023/03/15 12:45:16;;;;;;;4.03;0.98;;;9.10;84.10;;;;;;4970873;28;20799;-78
2023/03/15 12:47:50;;;;;;;2.55;0.63;;;9.00;83.80;;;;;;4978197;28;20038;-78
2023/03/15 12:50:43;;;;;;;2.65;0.60;;;9.00;84.00;;;;;;4972751;28;20034;-76
2023/03/15 12:53:38;;;;;;;1.90;0.40;;;8.90;83.20;;;;;;4975991;28;20041;-76
2023/03/15 12:56:49;;;;;;;1.98;0.45;;;9.00;84.20;;;;;;4974343;28;20364;-75
2023/03/15 12:59:47;;;;;;;3.38;0.80;;;8.90;83.50;;;;;;4988340;28;20085;-75
2023/03/15 13:02:30;;;;;;;2.88;0.80;;;8.90;84.20;;;;;;4981539;28;20026;-76
2023/03/15 13:05:32;;;;;;;1.02;0.50;;;8.80;84.10;;;;;;4991945;28;20027;-76
2023/03/15 13:08:04;;;;;;;1.70;0.43;;;8.80;84.80;;;;;;4972352;28;20035;-75